Terminal Aerodrome Forecast
Issued by NWS

Home | Current Version | Previous Version | Graphics & Text | Print | Product List | Glossary On
Versions: 1 2 3 4 5 6 7 8 9 10 11 12 13 14 15 16 17 18 19 20 21 22 23 24 25 26
000
FTUS43 KABR 051635 AAC
TAFPIR
TAF AMD
KPIR 051635Z 0517/0612 33011KT P6SM SCT006 BKN090
     FM051800 30021G30KT P6SM VCSH BKN015
     FM052000 31026G38KT P6SM VCSH BKN015
     FM052300 30028G39KT P6SM BKN050
     FM060500 30019G26KT P6SM BKN025
     FM061100 29017G25KT P6SM SCT060=

USA.gov is the U.S. government's official web portal to all federal, state and local government web resources and services.